Time;durP1;ratioP1;P1;durP2;ratioP2;P2;SDS_P1;SDS_P2;PMS_P1;PMS_P2;Temp;Humidity;BMP_temperature;BMP_pressure;BME280_temperature;BME280_humidity;BME280_pressure;Samples;Min_cycle;Max_cycle;Signal;HPM_P1;HPM_P2
2021/06/10 00:01:21;;;;;;;3.28;1.90;;;;;;;12.78;100.00;93032.28;5017185;28;20412;-96
2021/06/10 00:03:47;;;;;;;3.88;1.92;;;;;;;12.83;100.00;93052.22;5018723;28;20058;-94
2021/06/10 00:06:14;;;;;;;2.75;1.88;;;;;;;12.54;100.00;93022.00;5015620;28;20057;-96
2021/06/10 00:08:42;;;;;;;3.70;2.05;;;;;;;12.79;100.00;93054.47;5015781;28;20049;-94
2021/06/10 00:11:08;;;;;;;3.60;2.35;;;;;;;12.78;100.00;93049.53;5016026;28;20052;-93
2021/06/10 00:13:34;;;;;;;3.05;2.00;;;;;;;12.48;100.00;93017.75;5015802;28;20411;-96
2021/06/10 00:16:01;;;;;;;2.83;1.90;;;;;;;12.31;100.00;92988.56;5016009;28;20050;-95
2021/06/10 00:18:27;;;;;;;4.82;2.13;;;;;;;12.11;100.00;92964.72;5015605;28;20056;-95
2021/06/10 00:20:54;;;;;;;2.67;2.00;;;;;;;12.42;100.00;93000.63;5015591;28;20065;-95
2021/06/10 00:23:20;;;;;;;4.85;2.20;;;;;;;12.61;100.00;93041.72;5023264;28;20049;-94
2021/06/10 00:25:48;;;;;;;4.93;1.98;;;;;;;12.61;100.00;93028.84;5034932;28;20563;-95
2021/06/10 00:28:15;;;;;;;3.80;2.13;;;;;;;12.64;100.00;93030.97;5027288;28;20049;-95
2021/06/10 00:30:41;;;;;;;3.10;2.10;;;;;;;12.40;100.00;92989.75;5032182;28;20400;-94
2021/06/10 00:33:08;;;;;;;3.95;2.08;;;;;;;12.19;100.00;92970.53;5037937;28;20057;-95
2021/06/10 00:35:35;;;;;;;3.90;2.10;;;;;;;12.32;100.00;92990.91;5035367;28;20057;-96
2021/06/10 00:38:01;;;;;;;4.07;2.53;;;;;;;12.36;100.00;93002.31;5035270;28;20050;-96
2021/06/10 00:40:29;;;;;;;3.53;1.98;;;;;;;12.12;100.00;92962.91;5034987;28;20041;-96
2021/06/10 00:42:58;;;;;;;3.42;2.05;;;;;;;12.20;100.00;92980.59;5035655;28;20057;-96
2021/06/10 00:45:25;;;;;;;3.65;2.25;;;;;;;12.42;100.00;93008.38;5034831;28;20053;-95
2021/06/10 00:47:53;;;;;;;2.85;2.10;;;;;;;11.93;100.00;92941.66;5035452;28;20081;-96
2021/06/10 00:50:22;;;;;;;4.57;1.80;;;;;;;11.65;100.00;92928.44;5029196;28;20053;-95
2021/06/10 00:52:49;;;;;;;2.80;2.05;;;;;;;12.25;100.00;93011.63;5014844;28;20050;-95
2021/06/10 00:55:15;;;;;;;4.70;2.50;;;;;;;11.89;100.00;92972.97;5014761;28;20052;-93
2021/06/10 00:57:42;;;;;;;3.22;1.75;;;;;;;11.92;100.00;92960.66;5014938;28;20058;-96
2021/06/10 01:00:14;;;;;;;4.78;2.28;;;;;;;11.86;100.00;92955.38;5014846;28;20100;-96
2021/06/10 01:02:41;;;;;;;2.90;1.77;;;;;;;12.28;100.00;93020.69;5019011;28;20056;-95
2021/06/10 01:05:09;;;;;;;3.20;2.40;;;;;;;11.62;100.00;92945.09;5020005;28;20052;-95
2021/06/10 01:07:43;;;;;;;3.63;2.30;;;;;;;11.80;100.00;92969.16;5026135;28;20060;-93
2021/06/10 01:10:18;;;;;;;3.45;2.10;;;;;;;12.18;100.00;93015.31;5034419;28;20132;-95
2021/06/10 01:12:53;;;;;;;2.83;2.05;;;;;;;11.45;100.00;92916.69;5034382;28;20453;-96
2021/06/10 01:15:26;;;;;;;4.67;2.13;;;;;;;11.96;100.00;92996.03;5031300;28;20049;-94
2021/06/10 01:17:52;;;;;;;4.40;3.35;;;;;;;11.76;100.00;92968.81;5034272;28;20741;-95
2021/06/10 01:20:22;;;;;;;6.35;3.40;;;;;;;11.87;100.00;92976.78;5034223;28;20057;-95
2021/06/10 01:22:59;;;;;;;7.50;3.40;;;;;;;11.86;100.00;92970.84;5034180;28;20536;-94
2021/06/10 01:25:38;;;;;;;4.30;2.55;;;;;;;12.20;100.00;93021.00;5034044;28;20392;-93
2021/06/10 01:28:10;;;;;;;4.88;2.65;;;;;;;11.69;100.00;92969.94;5034126;28;20045;-94
2021/06/10 01:30:40;;;;;;;4.28;3.10;;;;;;;12.00;100.00;93020.31;5033784;28;20397;-95
2021/06/10 01:33:11;;;;;;;3.42;2.05;;;;;;;11.76;100.00;92989.41;5037281;28;20061;-93
2021/06/10 01:35:42;;;;;;;3.17;2.00;;;;;;;11.76;100.00;92988.63;5033823;28;20053;-96
2021/06/10 01:38:11;;;;;;;3.88;2.17;;;;;;;11.62;100.00;92968.25;5033792;28;20045;-94
2021/06/10 01:40:38;;;;;;;3.75;2.28;;;;;;;11.19;100.00;92916.06;5033410;28;20041;-95
2021/06/10 01:43:08;;;;;;;6.70;3.58;;;;;;;11.58;100.00;92969.69;5033489;28;20111;-95
2021/06/10 01:45:35;;;;;;;5.85;2.70;;;;;;;11.96;100.00;93021.78;5033181;28;20046;-95
2021/06/10 01:48:02;;;;;;;4.10;2.38;;;;;;;11.68;100.00;92961.44;5034245;28;20049;-93
2021/06/10 01:50:30;;;;;;;3.65;2.50;;;;;;;11.98;100.00;93008.66;5033923;28;20480;-95
2021/06/10 01:52:57;;;;;;;3.20;2.25;;;;;;;11.76;100.00;92994.56;5033244;28;20060;-95
2021/06/10 01:55:27;;;;;;;8.80;3.25;;;;;;;11.69;100.00;92985.38;5033552;28;20053;-93
2021/06/10 01:57:56;;;;;;;5.22;2.30;;;;;;;11.99;100.00;93031.59;5033209;28;20064;-94
2021/06/10 02:00:26;;;;;;;2.90;2.00;;;;;;;11.49;100.00;92968.47;5033645;28;20118;-94
2021/06/10 02:02:54;;;;;;;3.63;2.72;;;;;;;11.70;100.00;92994.66;5036801;28;20056;-94
2021/06/10 02:05:22;;;;;;;5.13;2.75;;;;;;;11.70;100.00;92997.22;5033812;28;20053;-94
2021/06/10 02:07:50;;;;;;;13.63;2.67;;;;;;;11.78;100.00;92999.47;5033244;28;20045;-95
2021/06/10 02:10:22;;;;;;;3.67;2.10;;;;;;;11.71;100.00;92994.44;5033711;28;20050;-94
2021/06/10 02:12:48;;;;;;;3.00;2.25;;;;;;;11.48;100.00;92967.66;5033221;28;20064;-95
2021/06/10 02:15:17;;;;;;;4.50;1.90;;;;;;;11.48;100.00;92977.19;5033113;28;20041;-94
2021/06/10 02:17:47;;;;;;;3.72;2.53;;;;;;;11.61;100.00;92994.19;5033544;28;20052;-94
2021/06/10 02:20:16;;;;;;;8.32;2.63;;;;;;;11.43;100.00;92982.97;5033328;28;20112;-95
2021/06/10 02:22:43;;;;;;;4.22;2.40;;;;;;;11.84;100.00;93026.91;5033331;28;20144;-94
2021/06/10 02:25:10;;;;;;;3.53;1.92;;;;;;;11.53;100.00;92984.22;5033183;28;20522;-94
2021/06/10 02:27:36;;;;;;;2.85;2.33;;;;;;;11.42;100.00;92960.81;5033083;28;20537;-95
2021/06/10 02:30:05;;;;;;;4.18;2.35;;;;;;;11.84;100.00;93026.09;5032898;28;20133;-94
2021/06/10 02:32:31;;;;;;;5.90;3.08;;;;;;;11.64;100.00;92998.91;5035101;28;20061;-93
2021/06/10 02:35:01;;;;;;;4.75;2.85;;;;;;;11.48;100.00;92970.22;5033968;28;20049;-94
2021/06/10 02:37:29;;;;;;;5.05;2.42;;;;;;;11.34;100.00;92964.50;5032937;28;20053;-95
2021/06/10 02:39:56;;;;;;;3.38;2.53;;;;;;;11.14;100.00;92939.06;5032879;28;20045;-93
2021/06/10 02:42:23;;;;;;;4.22;2.35;;;;;;;11.43;100.00;92982.19;5033011;28;20084;-93
2021/06/10 02:44:52;;;;;;;3.65;2.40;;;;;;;11.34;100.00;92974.78;5032751;28;20055;-94
2021/06/10 02:47:21;;;;;;;6.63;2.63;;;;;;;11.41;100.00;92994.47;5032910;28;20042;-94
2021/06/10 02:49:50;;;;;;;13.63;2.58;;;;;;;11.58;100.00;93021.13;5032636;28;20049;-95
2021/06/10 02:52:19;;;;;;;2.92;2.10;;;;;;;11.48;100.00;93008.03;5032705;28;20050;-93
2021/06/10 02:54:47;;;;;;;3.30;1.85;;;;;;;11.37;100.00;92999.28;5033422;28;20471;-93
2021/06/10 02:57:14;;;;;;;3.90;2.55;;;;;;;11.14;100.00;92953.69;5037251;28;20049;-93
2021/06/10 02:59:43;;;;;;;2.30;1.80;;;;;;;11.33;100.00;92986.06;5037122;28;20052;-94
2021/06/10 03:02:10;;;;;;;6.88;2.15;;;;;;;11.60;100.00;93032.00;5038332;28;20053;-94
2021/06/10 03:04:37;;;;;;;4.10;3.03;;;;;;;10.96;100.00;92950.19;5038721;28;20050;-95
2021/06/10 03:07:05;;;;;;;4.15;2.70;;;;;;;11.46;100.00;93013.41;5036566;28;20095;-96
2021/06/10 03:09:34;;;;;;;5.03;2.28;;;;;;;11.56;100.00;93022.34;5036629;28;20061;-94
2021/06/10 03:12:02;;;;;;;4.85;2.60;;;;;;;11.27;100.00;92988.72;5036951;28;20119;-92
2021/06/10 03:14:29;;;;;;;4.50;2.75;;;;;;;11.19;100.00;92976.97;5036563;28;20508;-94
2021/06/10 03:16:57;;;;;;;3.65;2.42;;;;;;;11.26;100.00;92990.53;5036550;28;20050;-95
2021/06/10 03:19:24;;;;;;;2.92;1.98;;;;;;;11.51;100.00;93020.44;5036651;28;20115;-96
2021/06/10 03:21:51;;;;;;;3.40;2.15;;;;;;;11.53;100.00;93025.38;5036206;28;20052;-94
2021/06/10 03:24:19;;;;;;;3.45;1.95;;;;;;;11.24;100.00;92977.09;5036703;28;20594;-93
2021/06/10 03:26:47;;;;;;;4.47;2.47;;;;;;;11.03;100.00;92953.47;5035957;28;20053;-93
2021/06/10 03:29:13;;;;;;;3.80;2.17;;;;;;;11.43;100.00;93013.06;5036219;28;20046;-93
2021/06/10 03:31:42;;;;;;;3.13;1.90;;;;;;;11.13;100.00;92968.34;5037200;28;20041;-94
2021/06/10 03:34:08;;;;;;;4.00;2.30;;;;;;;11.28;100.00;92985.16;5038917;28;20389;-92
2021/06/10 03:36:36;;;;;;;5.53;2.40;;;;;;;11.46;100.00;92999.75;5036020;28;20053;-93
2021/06/10 03:39:05;;;;;;;4.97;2.63;;;;;;;11.68;100.00;93025.75;5036510;28;20049;-94
2021/06/10 03:41:33;;;;;;;3.60;2.63;;;;;;;11.65;100.00;93030.53;5035977;28;20111;-94
2021/06/10 03:44:02;;;;;;;5.47;2.15;;;;;;;11.43;100.00;92987.34;5036077;28;20184;-94
2021/06/10 03:46:29;;;;;;;4.35;2.60;;;;;;;11.80;100.00;93027.56;5035834;28;20061;-94
2021/06/10 03:48:55;;;;;;;4.95;2.55;;;;;;;11.55;100.00;92979.63;5035682;28;20075;-94
2021/06/10 03:51:22;;;;;;;3.58;2.17;;;;;;;11.66;100.00;92999.44;5036073;28;20045;-94
2021/06/10 03:53:50;;;;;;;3.15;2.03;;;;;;;11.39;100.00;92947.63;5036225;28;20042;-94
2021/06/10 03:56:17;;;;;;;8.02;3.13;;;;;;;11.65;100.00;92991.94;5036089;28;20058;-95
2021/06/10 03:58:43;;;;;;;7.72;2.10;;;;;;;11.68;100.00;92986.38;5035707;28;20057;-95
2021/06/10 04:01:11;;;;;;;4.65;2.05;;;;;;;11.75;100.00;93002.47;5035991;28;20438;-94
2021/06/10 04:03:39;;;;;;;4.32;2.65;;;;;;;11.62;100.00;92981.09;5037937;28;20448;-92
2021/06/10 04:06:05;;;;;;;3.17;2.45;;;;;;;12.10;100.00;93032.69;5035004;28;20076;-93
2021/06/10 04:08:32;;;;;;;3.13;1.95;;;;;;;12.14;100.00;93020.91;5034856;28;20077;-93
2021/06/10 04:10:58;;;;;;;4.25;2.72;;;;;;;12.14;100.00;93005.44;5035287;28;20057;-94
2021/06/10 04:13:25;;;;;;;3.80;2.33;;;;;;;12.16;100.00;92994.94;5035973;28;20111;-96
2021/06/10 04:15:51;;;;;;;3.55;2.35;;;;;;;12.12;100.00;92980.94;5035543;28;20057;-95
2021/06/10 04:18:19;;;;;;;3.35;2.13;;;;;;;12.53;100.00;93015.28;5035255;28;20527;-94
2021/06/10 04:20:46;;;;;;;3.92;2.50;;;;;;;12.65;100.00;93027.38;5035601;28;20071;-95
2021/06/10 04:23:12;;;;;;;4.10;2.85;;;;;;;12.12;100.00;92939.75;5035497;28;20056;-95
2021/06/10 04:25:39;;;;;;;4.43;2.70;;;;;;;12.59;100.00;93002.53;5035185;28;20076;-93
2021/06/10 04:28:06;;;;;;;5.07;3.15;;;;;;;12.40;100.00;92961.44;5035032;28;20472;-95
2021/06/10 04:30:32;;;;;;;13.70;4.03;;;;;;;12.52;100.00;92975.09;5035292;28;20053;-94
2021/06/10 04:32:59;;;;;;;3.72;2.50;;;;;;;12.70;100.00;92992.16;5037091;28;20049;-94
2021/06/10 04:35:27;;;;;;;5.68;3.78;;;;;;;12.77;100.00;92992.06;5035331;28;20045;-95
2021/06/10 04:37:53;;;;;;;5.38;3.13;;;;;;;12.90;100.00;92992.78;5034804;28;20068;-94
2021/06/10 04:40:20;;;;;;;6.60;4.18;;;;;;;12.96;100.00;92989.28;5034817;28;20052;-93
2021/06/10 04:42:46;;;;;;;4.20;2.70;;;;;;;12.83;100.00;92951.69;5034593;28;20045;-93
2021/06/10 04:45:13;;;;;;;5.80;3.28;;;;;;;13.19;100.00;92988.44;5034866;28;20054;-93
2021/06/10 04:47:40;;;;;;;4.38;2.72;;;;;;;13.39;100.00;92996.75;5034740;28;20404;-92
2021/06/10 04:50:08;;;;;;;6.53;3.58;;;;;;;13.31;100.00;92961.81;5034759;28;20061;-95
2021/06/10 04:52:36;;;;;;;6.93;3.42;;;;;;;13.44;100.00;92981.38;5034745;28;20484;-94
2021/06/10 04:55:02;;;;;;;6.30;3.28;;;;;;;13.49;100.00;92984.06;5034772;28;20048;-93
2021/06/10 04:57:30;;;;;;;4.80;3.78;;;;;;;13.49;100.00;92991.81;5034769;28;20049;-94
2021/06/10 04:59:57;;;;;;;5.30;2.80;;;;;;;13.46;100.00;92984.50;5034676;28;20049;-94
2021/06/10 05:02:23;;;;;;;7.47;3.95;;;;;;;13.19;100.00;92933.50;5035634;28;20129;-92
2021/06/10 05:04:50;;;;;;;4.95;3.75;;;;;;;13.59;100.00;92963.59;5035634;28;20054;-95
2021/06/10 05:07:16;;;;;;;6.75;3.22;;;;;;;13.87;100.00;92977.44;5033947;28;20049;-93
2021/06/10 05:09:44;;;;;;;;;;;;;;;14.14;100.00;92999.25;5034928;28;20079;-95
2021/06/10 05:12:11;;;;;;;4.90;3.35;;;;;;;13.91;100.00;92949.34;5034443;28;19921;-95
2021/06/10 05:14:37;;;;;;;4.70;2.60;;;;;;;14.35;100.00;92989.19;5034468;28;20491;-94
2021/06/10 05:17:04;;;;;;;5.35;3.28;;;;;;;14.47;100.00;92971.00;5034176;28;20053;-96
2021/06/10 05:19:30;;;;;;;4.45;3.10;;;;;;;14.58;100.00;92957.16;5034211;28;20046;-95
2021/06/10 05:21:57;;;;;;;5.38;3.03;;;;;;;14.53;100.00;92939.00;5033909;28;20049;-94
2021/06/10 05:24:26;;;;;;;5.45;3.50;;;;;;;15.19;100.00;93015.03;5033845;28;20045;-95
2021/06/10 05:26:54;;;;;;;5.78;2.90;;;;;;;15.03;100.00;92952.78;5033959;28;20127;-95
2021/06/10 05:29:21;;;;;;;5.68;3.88;;;;;;;15.30;100.00;92969.34;5034016;28;20076;-94
2021/06/10 05:31:47;;;;;;;5.93;3.45;;;;;;;15.50;100.00;92979.88;5034224;28;20171;-94
2021/06/10 05:34:14;;;;;;;4.95;3.40;;;;;;;15.59;100.00;92956.91;5035738;28;20797;-95
2021/06/10 05:36:40;;;;;;;8.35;3.72;;;;;;;15.78;100.00;92959.13;5033580;28;20053;-94
2021/06/10 05:39:07;;;;;;;6.85;3.72;;;;;;;15.97;99.39;92969.13;5033566;28;20103;-94
2021/06/10 05:41:33;;;;;;;9.10;3.90;;;;;;;16.25;99.03;92975.00;5034043;28;20180;-94
2021/06/10 05:44:01;;;;;;;;;;;;;;;16.64;96.61;93013.59;5033754;28;20045;-94
2021/06/10 05:46:29;;;;;;;5.72;3.38;;;;;;;16.28;96.55;92956.34;5033258;28;20271;-95
2021/06/10 05:48:57;;;;;;;7.88;3.97;;;;;;;16.74;95.93;93001.69;5033564;28;20045;-95
2021/06/10 05:51:23;;;;;;;6.70;3.38;;;;;;;16.69;95.22;92940.19;5034158;28;20051;-95
2021/06/10 05:53:50;;;;;;;9.80;4.72;;;;;;;17.33;91.88;93000.63;5033577;28;20049;-95
2021/06/10 05:56:16;;;;;;;14.43;6.07;;;;;;;17.56;90.85;93003.78;5033586;28;20478;-95
2021/06/10 05:58:42;;;;;;;9.98;4.70;;;;;;;17.59;90.39;92953.91;5033614;28;20053;-93
2021/06/10 06:01:10;;;;;;;9.55;4.75;;;;;;;18.04;86.59;92987.13;5033447;28;20404;-93
2021/06/10 06:03:37;;;;;;;12.38;4.63;;;;;;;18.45;85.80;93014.94;5036392;28;20041;-94
2021/06/10 06:06:03;;;;;;;14.13;7.15;;;;;;;18.23;81.83;92969.22;5033213;28;20108;-95
2021/06/10 06:08:30;;;;;;;13.07;5.32;;;;;;;18.44;81.73;92969.16;5033058;28;20057;-94
2021/06/10 06:10:57;;;;;;;10.48;4.85;;;;;;;18.75;81.34;92994.31;5033051;28;20053;-94
2021/06/10 06:13:34;;;;;;;11.40;5.05;;;;;;;18.78;81.49;92933.91;5033060;28;20100;-95
2021/06/10 06:16:05;;;;;;;13.10;5.53;;;;;;;19.02;77.71;92939.25;5032967;28;20053;-95
2021/06/10 06:18:34;;;;;;;10.07;3.50;;;;;;;19.82;77.98;93007.06;5033535;28;20492;-95
2021/06/10 06:21:00;;;;;;;8.52;3.25;;;;;;;19.93;76.32;92976.47;5033026;28;20049;-96
2021/06/10 06:23:28;;;;;;;10.77;3.97;;;;;;;19.84;75.91;92931.97;5033323;28;20111;-95
2021/06/10 06:25:55;;;;;;;5.07;3.35;;;;;;;20.25;72.84;92992.63;5032809;28;20049;-95
2021/06/10 06:28:21;;;;;;;4.88;2.72;;;;;;;20.39;72.64;92977.91;5033624;28;20457;-95
2021/06/10 06:30:48;;;;;;;6.65;3.00;;;;;;;20.69;73.97;92975.25;5033182;28;20049;-94
2021/06/10 06:33:14;;;;;;;6.05;3.35;;;;;;;20.81;72.04;92951.34;5035049;28;20463;-94
2021/06/10 06:35:43;;;;;;;4.85;2.95;;;;;;;21.66;71.63;93003.00;5034264;28;20656;-95
2021/06/10 06:38:10;;;;;;;6.88;2.65;;;;;;;21.83;69.29;92978.22;5033821;28;20041;-96
2021/06/10 06:40:36;;;;;;;5.35;2.67;;;;;;;22.29;68.19;92990.53;5033480;28;20056;-95
2021/06/10 06:43:03;;;;;;;4.43;2.13;;;;;;;22.43;66.25;92972.25;5033764;28;20049;-95
2021/06/10 06:45:29;;;;;;;4.65;3.13;;;;;;;22.40;66.30;92982.53;5033004;28;20058;-95
2021/06/10 06:47:56;;;;;;;5.90;3.33;;;;;;;22.31;68.67;92968.53;5033199;28;20052;-96
2021/06/10 06:50:22;;;;;;;4.60;2.67;;;;;;;21.79;68.50;92972.03;5032898;28;20046;-94
2021/06/10 06:52:50;;;;;;;4.47;2.47;;;;;;;21.76;68.85;92952.44;5034143;28;20056;-96
2021/06/10 06:55:16;;;;;;;8.65;2.78;;;;;;;21.78;67.91;92945.09;5031932;28;20045;-96
2021/06/10 06:57:43;;;;;;;5.15;3.15;;;;;;;22.44;68.56;92973.00;5032853;28;20042;-95
2021/06/10 07:00:10;;;;;;;3.67;1.90;;;;;;;22.32;64.07;92972.72;5033012;28;20041;-94
2021/06/10 07:02:36;;;;;;;5.13;2.47;;;;;;;22.87;65.18;92955.50;5034683;28;20056;-94
2021/06/10 07:05:04;;;;;;;8.95;2.92;;;;;;;23.64;62.30;93007.38;5035757;28;20060;-96
2021/06/10 07:07:30;;;;;;;3.22;2.05;;;;;;;23.63;63.18;92975.13;5033978;28;20050;-95
2021/06/10 07:09:58;;;;;;;3.42;2.05;;;;;;;23.71;61.72;92966.56;5033306;28;20407;-96
2021/06/10 07:12:25;;;;;;;4.55;2.83;;;;;;;23.67;64.05;92973.47;5033848;28;20435;-96
2021/06/10 07:14:51;;;;;;;3.90;1.90;;;;;;;24.13;62.48;92971.63;5032950;28;20049;-96
2021/06/10 07:17:17;;;;;;;2.28;1.63;;;;;;;24.64;59.22;92974.00;5033067;28;20051;-95
2021/06/10 07:19:44;;;;;;;4.30;1.95;;;;;;;24.85;59.41;92972.72;5033663;28;20061;-96
2021/06/10 07:22:11;;;;;;;2.80;1.83;;;;;;;24.77;58.59;92924.28;5038191;28;20050;-96
2021/06/10 07:24:37;;;;;;;3.70;1.85;;;;;;;25.25;57.73;92959.47;5033737;28;20406;-96
2021/06/10 07:27:06;;;;;;;3.13;2.15;;;;;;;24.27;59.22;92997.00;5033374;28;20136;-96
2021/06/10 07:29:32;;;;;;;3.00;1.60;;;;;;;24.05;59.55;92984.66;5032949;28;20411;-96
2021/06/10 07:31:58;;;;;;;2.55;1.30;;;;;;;23.13;60.48;92991.66;5032599;28;20049;-94
2021/06/10 07:34:27;;;;;;;2.25;1.70;;;;;;;22.53;60.86;93012.41;5035134;28;20470;-96
2021/06/10 07:36:53;;;;;;;4.55;1.90;;;;;;;22.34;62.15;92955.66;5032248;28;20047;-96
2021/06/10 07:39:20;;;;;;;4.30;1.40;;;;;;;22.25;62.09;92965.22;5032813;28;20049;-95
2021/06/10 07:41:46;;;;;;;2.42;1.65;;;;;;;22.20;63.26;92973.94;5033054;28;20056;-94
2021/06/10 07:44:14;;;;;;;2.38;1.50;;;;;;;21.49;64.64;92964.31;5032950;28;20448;-96
2021/06/10 07:46:40;;;;;;;2.95;1.83;;;;;;;21.28;67.81;93016.84;5016529;28;20046;-93
2021/06/10 07:49:06;;;;;;;2.03;1.48;;;;;;;20.56;69.22;92953.19;5015998;28;20054;-96
2021/06/10 07:51:33;;;;;;;2.83;1.95;;;;;;;21.39;70.80;93025.34;5016228;28;20137;-96
2021/06/10 07:53:59;;;;;;;2.38;1.33;;;;;;;21.51;66.80;92958.81;5016215;28;20475;-93
2021/06/10 07:56:25;;;;;;;1.95;1.27;;;;;;;21.42;64.23;92932.56;5015855;28;20100;-96
2021/06/10 07:58:52;;;;;;;1.65;1.13;;;;;;;22.03;56.75;92982.34;5015841;28;20060;-94
2021/06/10 08:01:20;;;;;;;1.35;1.00;;;;;;;22.76;56.21;93020.34;5016224;28;20052;-95
2021/06/10 08:03:46;;;;;;;2.00;1.10;;;;;;;22.38;57.73;92951.41;5018826;28;20068;-94
2021/06/10 08:06:12;;;;;;;2.65;1.50;;;;;;;22.42;63.71;92962.06;5016010;28;20046;-93
2021/06/10 08:08:39;;;;;;;3.45;1.90;;;;;;;21.87;63.52;92987.03;5015650;28;20080;-93
2021/06/10 08:11:09;;;;;;;2.60;1.48;;;;;;;22.01;67.19;93002.78;5015526;28;20053;-95
2021/06/10 08:13:35;;;;;;;4.13;2.45;;;;;;;22.29;65.60;92997.59;5015688;28;20050;-95
2021/06/10 08:16:02;;;;;;;7.55;3.13;;;;;;;22.33;66.22;92987.34;5015741;28;20782;-93
2021/06/10 08:18:30;;;;;;;5.70;2.80;;;;;;;21.88;65.68;93005.06;5014539;28;20049;-94
2021/06/10 08:20:58;;;;;;;3.22;1.88;;;;;;;22.35;65.38;93034.94;5015492;28;20050;-95
2021/06/10 08:23:25;;;;;;;6.43;1.90;;;;;;;22.20;64.81;93041.19;5016257;28;20046;-95
2021/06/10 08:25:54;;;;;;;4.30;2.40;;;;;;;21.82;63.41;92956.53;5016170;28;20099;-96
2021/06/10 08:28:20;;;;;;;2.65;1.73;;;;;;;22.30;61.73;93027.94;5015201;28;20054;-94
2021/06/10 08:30:47;;;;;;;2.33;1.45;;;;;;;22.09;62.58;93001.34;5015304;28;20060;-96
2021/06/10 08:33:13;;;;;;;2.45;1.63;;;;;;;22.11;60.93;92991.38;5016861;28;20068;-95
2021/06/10 08:35:41;;;;;;;2.45;1.33;;;;;;;22.20;61.38;93017.63;5016234;28;20060;-93
2021/06/10 08:38:09;;;;;;;2.60;1.52;;;;;;;21.96;61.02;92998.41;5015240;28;20057;-96
2021/06/10 08:40:37;;;;;;;3.97;1.65;;;;;;;21.66;60.64;92989.94;5015098;28;20057;-94
2021/06/10 08:43:03;;;;;;;2.80;2.20;;;;;;;21.61;60.37;92982.16;5012042;28;20042;-95
2021/06/10 08:45:31;;;;;;;2.78;1.58;;;;;;;21.68;60.74;92992.28;5017808;28;20104;-94
2021/06/10 08:47:58;;;;;;;3.08;1.15;;;;;;;22.01;60.82;93018.47;5022412;28;20069;-95
2021/06/10 08:50:27;;;;;;;2.30;1.23;;;;;;;21.95;60.36;93024.84;5024597;28;20111;-94
2021/06/10 08:52:55;;;;;;;2.55;1.42;;;;;;;21.65;60.58;92985.78;5023874;28;20053;-94
2021/06/10 08:55:22;;;;;;;2.00;1.40;;;;;;;22.07;60.76;92972.09;5022994;28;20771;-93
2021/06/10 08:57:50;;;;;;;2.08;0.98;;;;;;;22.65;57.47;93025.03;5022141;28;20046;-94
2021/06/10 09:00:17;;;;;;;2.45;1.60;;;;;;;22.42;57.17;93009.16;5023049;28;20049;-94
2021/06/10 09:02:50;;;;;;;1.92;0.75;;;;;;;22.58;56.75;93007.06;5021458;28;20057;-96
2021/06/10 09:05:19;;;;;;;1.88;1.02;;;;;;;22.01;56.58;92985.25;5024738;28;20132;-94
2021/06/10 09:07:56;;;;;;;2.15;1.17;;;;;;;22.35;56.64;93042.78;5024543;28;20049;-94
2021/06/10 09:10:25;;;;;;;1.75;1.08;;;;;;;22.04;57.37;93044.06;5020243;28;20635;-94
2021/06/10 09:12:55;;;;;;;2.83;1.30;;;;;;;21.36;58.96;93028.50;5025471;28;20049;-94
2021/06/10 09:15:25;;;;;;;2.03;1.00;;;;;;;21.48;60.60;93041.94;5025746;28;20408;-94
2021/06/10 09:18:00;;;;;;;4.63;1.17;;;;;;;21.24;58.58;92976.66;5030800;28;20460;-95
2021/06/10 09:20:29;;;;;;;2.33;1.30;;;;;;;22.00;58.93;93049.06;5028483;28;20084;-96
2021/06/10 09:23:15;;;;;;;2.92;1.30;;;;;;;21.85;57.58;93015.31;5014373;28;20046;-95
2021/06/10 09:25:41;;;;;;;;;;;;;;;22.46;56.76;93041.56;5029104;28;20515;-95
2021/06/10 09:28:08;;;;;;;1.90;1.15;;;;;;;22.62;56.89;92991.56;5053249;28;19921;-95
2021/06/10 09:30:36;;;;;;;2.22;1.27;;;;;;;23.42;53.36;93029.84;5054294;28;20608;-95
2021/06/10 09:33:08;;;;;;;1.67;0.80;;;;;;;23.68;52.05;92998.63;5055018;28;20045;-94
2021/06/10 09:35:37;;;;;;;1.98;1.15;;;;;;;22.99;51.59;92991.66;5055284;28;20049;-96
2021/06/10 09:38:04;;;;;;;2.35;1.00;;;;;;;23.59;51.22;93024.75;5037201;28;20038;-95
2021/06/10 09:40:34;;;;;;;2.03;1.27;;;;;;;23.35;51.04;93045.97;5033756;28;20049;-95
2021/06/10 09:43:01;;;;;;;2.15;1.00;;;;;;;22.62;49.68;92974.03;5033506;28;20048;-94
2021/06/10 09:45:29;;;;;;;1.48;1.00;;;;;;;23.25;50.85;93015.50;5033927;28;20063;-95
2021/06/10 09:47:59;;;;;;;2.22;1.50;;;;;;;23.25;49.90;92978.03;5034087;28;20077;-95
2021/06/10 09:50:28;;;;;;;1.92;1.33;;;;;;;23.95;49.25;93023.19;5033725;28;20075;-95
2021/06/10 09:52:55;;;;;;;3.08;1.30;;;;;;;23.70;47.96;92978.09;5034818;28;20130;-94
2021/06/10 09:55:40;;;;;;;2.10;1.10;;;;;;;23.86;46.64;92959.38;5034323;28;20056;-96
2021/06/10 09:58:20;;;;;;;1.55;0.82;;;;;;;24.68;44.75;92972.31;5034103;28;20046;-95
2021/06/10 10:00:51;;;;;;;2.88;1.00;;;;;;;24.55;43.73;92973.19;5033448;28;20443;-94
2021/06/10 10:03:29;;;;;;;2.35;1.02;;;;;;;24.29;45.13;92977.25;5034121;28;20049;-95
2021/06/10 10:05:58;;;;;;;2.15;1.23;;;;;;;24.56;44.98;92998.38;5033257;28;20475;-94
2021/06/10 10:08:25;;;;;;;2.55;1.85;;;;;;;24.56;45.60;92956.34;5033076;28;20430;-94
2021/06/10 10:10:53;;;;;;;2.63;1.48;;;;;;;24.80;45.56;92948.09;5032745;28;20126;-94
2021/06/10 10:13:20;;;;;;;1.83;1.10;;;;;;;25.53;43.00;92980.22;5026929;28;20136;-95
2021/06/10 10:15:48;;;;;;;2.05;1.33;;;;;;;25.45;43.59;92994.13;5013529;28;20100;-94
2021/06/10 10:18:18;;;;;;;2.20;1.25;;;;;;;25.85;43.15;92994.00;5021473;28;20488;-94
2021/06/10 10:20:45;;;;;;;3.35;1.52;;;;;;;25.58;43.08;92998.50;5023195;28;20046;-95
2021/06/10 10:23:11;;;;;;;1.30;0.80;;;;;;;25.90;41.81;93003.59;5018650;28;20054;-93
2021/06/10 10:25:38;;;;;;;1.65;0.90;;;;;;;25.20;41.32;93012.19;5032365;28;20049;-95
2021/06/10 10:28:10;;;;;;;1.30;0.70;;;;;;;25.21;41.45;92951.44;5032878;28;20104;-96
2021/06/10 10:30:38;;;;;;;1.92;1.02;;;;;;;24.48;42.04;92968.38;5034090;28;20186;-96
2021/06/10 10:33:15;;;;;;;1.42;0.60;;;;;;;24.01;41.87;92987.88;5033851;28;20049;-96
2021/06/10 10:35:48;;;;;;;1.50;0.85;;;;;;;24.18;42.50;92981.22;5033549;28;20053;-96
2021/06/10 10:38:20;;;;;;;1.77;1.00;;;;;;;24.27;43.17;92944.50;5032898;28;20357;-95
2021/06/10 10:40:52;;;;;;;1.45;1.00;;;;;;;23.91;41.05;92982.09;5032609;28;20057;-93
2021/06/10 10:43:20;;;;;;;2.80;0.80;;;;;;;23.85;41.96;92976.22;5032489;28;20053;-96
2021/06/10 10:45:51;;;;;;;1.77;0.90;;;;;;;24.13;41.87;92990.00;5032475;28;20103;-96
2021/06/10 10:48:32;;;;;;;1.98;0.90;;;;;;;23.67;43.30;92949.09;5031992;28;20045;-94
2021/06/10 10:50:59;;;;;;;3.28;0.90;;;;;;;23.95;43.26;93020.56;5032210;28;20407;-94
2021/06/10 10:53:27;;;;;;;1.75;1.00;;;;;;;22.88;45.09;92993.69;5031548;28;20153;-93
2021/06/10 10:56:05;;;;;;;1.52;0.70;;;;;;;23.16;46.25;92998.91;5032185;28;20064;-94
2021/06/10 10:58:33;;;;;;;2.08;1.58;;;;;;;23.48;46.08;93024.19;5032412;28;20049;-95
2021/06/10 11:01:01;;;;;;;2.05;1.02;;;;;;;23.55;45.14;92966.13;5032653;28;20049;-94
2021/06/10 11:03:35;;;;;;;2.05;0.90;;;;;;;24.21;45.55;93025.22;5042877;28;20060;-93
2021/06/10 11:06:32;;;;;;;2.38;1.23;;;;;;;23.99;44.70;93015.50;5053061;28;20053;-94
2021/06/10 11:09:00;;;;;;;1.90;1.50;;;;;;;23.71;44.93;92971.81;5052733;28;20479;-95
2021/06/10 11:11:49;;;;;;;2.08;1.20;;;;;;;23.98;46.48;93017.31;5052338;28;20056;-94
2021/06/10 11:14:40;;;;;;;1.65;1.10;;;;;;;24.31;45.54;93011.09;5052791;28;20056;-96
2021/06/10 11:17:17;;;;;;;3.85;1.25;;;;;;;23.61;44.85;92978.03;5048681;28;20046;-95
2021/06/10 11:20:06;;;;;;;1.48;0.90;;;;;;;23.61;45.55;93027.09;5036495;28;20045;-96
2021/06/10 11:22:37;;;;;;;1.80;1.10;;;;;;;23.56;45.07;92975.53;5033732;28;20049;-96
2021/06/10 11:25:06;;;;;;;3.95;1.50;;;;;;;23.71;46.35;92974.44;5036428;28;20071;-96
2021/06/10 11:27:43;;;;;;;1.83;1.00;;;;;;;23.45;46.38;92969.75;5036262;28;20450;-95
2021/06/10 11:30:26;;;;;;;2.50;1.23;;;;;;;22.65;47.44;92904.59;5036254;28;20450;-96
2021/06/10 11:32:58;;;;;;;1.48;0.93;;;;;;;23.16;47.70;92959.59;5035936;28;20049;-95
2021/06/10 11:35:29;;;;;;;2.40;1.50;;;;;;;23.09;49.08;92931.19;5037339;28;20053;-96